createdAt,value
2023-04-09T00:00:00.145Z,10
2023-04-09T00:05:00.139Z,2.5
2023-04-09T00:10:00.126Z,2.5
2023-04-09T00:15:00.166Z,2.5
2023-04-09T00:20:00.129Z,0
2023-04-09T00:25:00.143Z,7.5
2023-04-09T00:30:00.138Z,10
2023-04-09T00:35:00.118Z,7.5
2023-04-09T00:40:00.128Z,2.5
2023-04-09T00:45:00.185Z,10
2023-04-09T00:50:00.134Z,5
2023-04-09T00:55:00.116Z,7.5
2023-04-09T01:00:00.123Z,12.5
2023-04-09T01:05:00.184Z,5
2023-04-09T01:10:00.135Z,12.5
2023-04-09T01:15:00.143Z,12.5
2023-04-09T01:20:00.132Z,2.5
2023-04-09T01:25:00.136Z,20
2023-04-09T01:30:00.130Z,15
2023-04-09T01:35:00.105Z,15
2023-04-09T01:40:00.165Z,12.5
2023-04-09T01:45:00.145Z,7.5
2023-04-09T01:50:00.153Z,17.5
2023-04-09T01:55:00.115Z,10
2023-04-09T02:00:00.142Z,7.5
2023-04-09T02:05:00.111Z,12.5
2023-04-09T02:10:00.153Z,15
2023-04-09T02:15:00.260Z,12.5
2023-04-09T02:20:00.168Z,10
2023-04-09T02:25:00.120Z,12.5
2023-04-09T02:30:00.135Z,20
2023-04-09T02:35:00.118Z,20
2023-04-09T02:40:00.118Z,20
2023-04-09T02:45:00.113Z,20
2023-04-09T02:50:00.174Z,15
2023-04-09T02:55:00.124Z,5
2023-04-09T03:00:00.168Z,12.5
2023-04-09T03:05:00.119Z,5
2023-04-09T03:10:00.107Z,7.5
2023-04-09T03:15:00.121Z,10
2023-04-09T03:20:00.137Z,10
2023-04-09T03:25:00.139Z,5
2023-04-09T03:30:00.149Z,5
2023-04-09T03:35:00.144Z,0
2023-04-09T03:40:00.164Z,12.5
2023-04-09T03:45:00.134Z,12.5
2023-04-09T03:50:00.170Z,7.5
2023-04-09T03:55:00.137Z,10
2023-04-09T04:00:00.117Z,20
2023-04-09T04:05:00.151Z,20
2023-04-09T04:10:00.156Z,2.5
2023-04-09T04:15:00.159Z,0
2023-04-09T04:20:00.142Z,2.5
2023-04-09T04:25:00.154Z,7.5
2023-04-09T04:30:00.197Z,12.5
2023-04-09T04:35:00.110Z,15
2023-04-09T04:40:00.150Z,20
2023-04-09T04:45:00.136Z,10
2023-04-09T04:50:00.112Z,20
2023-04-09T04:55:00.101Z,27.5
2023-04-09T05:00:00.196Z,25
2023-04-09T05:05:00.140Z,37.5
2023-04-09T05:10:00.115Z,45
2023-04-09T05:15:00.135Z,27.5
2023-04-09T05:20:00.155Z,15
2023-04-09T05:25:00.139Z,20
2023-04-09T05:30:01.085Z,42.5
2023-04-09T05:35:00.137Z,50
2023-04-09T05:40:00.157Z,50
2023-04-09T05:45:00.122Z,57.5
2023-04-09T05:50:00.166Z,55
2023-04-09T05:55:00.127Z,55
2023-04-09T06:00:00.143Z,60
2023-04-09T06:05:00.349Z,57.5
2023-04-09T06:10:00.155Z,57.5
2023-04-09T06:15:00.127Z,65
2023-04-09T06:20:00.162Z,57.5
2023-04-09T06:25:00.175Z,80
2023-04-09T06:30:00.180Z,67.5
2023-04-09T06:35:00.141Z,72.5
2023-04-09T06:40:01.634Z,70
2023-04-09T06:45:00.135Z,65
2023-04-09T06:50:00.163Z,65
2023-04-09T06:55:00.136Z,75
2023-04-09T07:00:00.142Z,87.5
2023-04-09T07:05:00.136Z,77.5
2023-04-09T07:10:00.124Z,72.5
2023-04-09T07:15:00.116Z,72.5
2023-04-09T07:20:00.316Z,75
2023-04-09T07:25:00.134Z,100
2023-04-09T07:30:00.121Z,102.5
2023-04-09T07:35:00.133Z,75
2023-04-09T07:40:00.126Z,105
2023-04-09T07:45:00.104Z,102.5
2023-04-09T07:50:00.119Z,100
2023-04-09T07:55:00.142Z,100
2023-04-09T08:00:00.150Z,97.5
2023-04-09T08:05:00.267Z,100
2023-04-09T08:10:00.126Z,127.5
2023-04-09T08:15:00.105Z,117.5
2023-04-09T08:20:00.146Z,105
2023-04-09T08:25:02.568Z,125
2023-04-09T08:30:00.117Z,55
2023-04-09T08:35:00.099Z,70
2023-04-09T08:40:00.130Z,90
2023-04-09T08:45:00.140Z,80
2023-04-09T08:50:00.206Z,80
2023-04-09T08:55:00.176Z,105
2023-04-09T09:00:00.143Z,85
2023-04-09T09:05:00.148Z,35
2023-04-09T09:10:00.134Z,65
2023-04-09T09:15:00.128Z,65
2023-04-09T09:20:00.117Z,160
2023-04-09T09:25:00.116Z,160
2023-04-09T09:30:00.150Z,65
2023-04-09T09:35:00.123Z,75
2023-04-09T09:40:00.135Z,70
2023-04-09T09:45:00.128Z,85
2023-04-09T09:50:00.131Z,92.5
2023-04-09T09:55:00.132Z,85
2023-04-09T10:00:00.161Z,80
2023-04-09T10:05:00.123Z,107.5
2023-04-09T10:10:00.155Z,90
2023-04-09T10:15:00.114Z,110
2023-04-09T10:20:00.153Z,77.5
2023-04-09T10:25:00.178Z,135
2023-04-09T10:30:00.146Z,67.5
2023-04-09T10:35:00.113Z,130
2023-04-09T10:40:00.140Z,125
2023-04-09T10:45:00.140Z,65
2023-04-09T10:50:00.159Z,75
2023-04-09T10:55:00.115Z,105
2023-04-09T11:00:00.132Z,110
2023-04-09T11:05:00.242Z,55
2023-04-09T11:10:00.150Z,2.5
2023-04-09T11:15:00.115Z,57.5
2023-04-09T11:20:00.130Z,80
2023-04-09T11:25:00.146Z,65
2023-04-09T11:30:00.171Z,57.5
2023-04-09T11:35:00.140Z,40
2023-04-09T11:40:00.237Z,72.5
2023-04-09T11:45:00.139Z,92.5
2023-04-09T11:50:00.163Z,140
2023-04-09T11:55:00.121Z,95
2023-04-09T12:00:00.584Z,165
2023-04-09T12:05:00.137Z,120
2023-04-09T12:10:00.123Z,152.5
2023-04-09T12:15:00.120Z,152.5
2023-04-09T12:20:00.145Z,200
2023-04-09T12:25:00.119Z,177.5
2023-04-09T12:30:00.183Z,62.5
2023-04-09T12:35:00.157Z,72.5
2023-04-09T12:40:00.139Z,95
2023-04-09T12:45:00.157Z,115
2023-04-09T12:50:00.155Z,192.5
2023-04-09T12:55:00.142Z,182.5
2023-04-09T13:00:00.170Z,125
2023-04-09T13:05:00.147Z,97.5
2023-04-09T13:10:00.143Z,125
2023-04-09T13:15:00.150Z,105
2023-04-09T13:20:00.151Z,60
2023-04-09T13:25:00.169Z,107.5
2023-04-09T13:30:00.112Z,147.5
2023-04-09T13:35:00.125Z,115
2023-04-09T13:40:00.190Z,110
2023-04-09T13:45:00.149Z,100
2023-04-09T13:50:00.130Z,105
2023-04-09T13:55:00.165Z,85
2023-04-09T14:00:00.126Z,102.5
2023-04-09T14:05:00.103Z,107.5
2023-04-09T14:10:00.166Z,92.5
2023-04-09T14:15:00.122Z,115
2023-04-09T14:20:00.119Z,95
2023-04-09T14:25:00.154Z,77.5
2023-04-09T14:30:00.121Z,105
2023-04-09T14:35:00.123Z,102.5
2023-04-09T14:40:00.110Z,107.5
2023-04-09T14:45:00.096Z,97.5
2023-04-09T14:50:00.215Z,95
2023-04-09T14:55:00.100Z,102.5
2023-04-09T15:00:00.130Z,105
2023-04-09T15:05:00.246Z,102.5
2023-04-09T15:10:00.114Z,107.5
2023-04-09T15:15:00.123Z,132.5
2023-04-09T15:20:00.125Z,120
2023-04-09T15:25:00.121Z,135
2023-04-09T15:30:00.107Z,147.5
2023-04-09T15:35:00.128Z,137.5
2023-04-09T15:40:00.121Z,145
2023-04-09T15:45:00.130Z,140
2023-04-09T15:50:00.111Z,132.5
2023-04-09T15:55:00.125Z,167.5
2023-04-09T16:00:00.145Z,157.5
2023-04-09T16:05:00.105Z,170
2023-04-09T16:10:00.114Z,182.5
2023-04-09T16:15:00.125Z,177.5
2023-04-09T16:20:00.151Z,102.5
2023-04-09T16:25:00.124Z,110
2023-04-09T16:30:00.155Z,110
2023-04-09T16:35:00.128Z,105
2023-04-09T16:40:00.123Z,115
2023-04-09T16:45:00.099Z,102.5
2023-04-09T16:50:00.140Z,110
2023-04-09T16:55:00.130Z,97.5
2023-04-09T17:00:00.174Z,145
2023-04-09T17:05:00.120Z,127.5
2023-04-09T17:10:00.154Z,135
2023-04-09T17:15:00.132Z,155
2023-04-09T17:20:00.193Z,105
2023-04-09T17:25:00.162Z,165
2023-04-09T17:30:00.174Z,170
2023-04-09T17:35:00.180Z,165
2023-04-09T17:40:00.154Z,300
2023-04-09T17:45:00.172Z,300
2023-04-09T17:50:00.177Z,305
2023-04-09T17:55:00.186Z,310
2023-04-09T18:00:00.156Z,305
2023-04-09T18:05:00.354Z,302.5
2023-04-09T18:10:00.141Z,302.5
2023-04-09T18:15:00.106Z,307.5
2023-04-09T18:20:00.122Z,307.5
2023-04-09T18:25:00.168Z,315
2023-04-09T18:30:00.355Z,310
2023-04-09T18:35:00.107Z,312.5
2023-04-09T18:40:02.366Z,307.5
2023-04-09T18:45:00.108Z,315
2023-04-09T18:50:00.147Z,315
2023-04-09T18:55:00.136Z,320
2023-04-09T19:00:00.187Z,315
2023-04-09T19:05:00.335Z,300
2023-04-09T19:10:00.117Z,315
2023-04-09T19:15:00.112Z,315
2023-04-09T19:20:00.169Z,312.5
2023-04-09T19:25:00.159Z,315
2023-04-09T19:30:00.136Z,305
2023-04-09T19:35:00.115Z,305
2023-04-09T19:40:00.143Z,315
2023-04-09T19:45:00.191Z,320
2023-04-09T19:50:00.158Z,317.5
2023-04-09T19:55:00.136Z,317.5
2023-04-09T20:00:00.176Z,307.5
2023-04-09T20:05:00.144Z,307.5
2023-04-09T20:10:00.136Z,315
2023-04-09T20:15:00.133Z,317.5
2023-04-09T20:20:00.142Z,307.5
2023-04-09T20:25:00.164Z,297.5
2023-04-09T20:30:00.144Z,310
2023-04-09T20:35:00.158Z,307.5
2023-04-09T20:40:00.152Z,307.5
2023-04-09T20:45:01.525Z,300
2023-04-09T20:50:00.193Z,300
2023-04-09T20:55:00.121Z,295
2023-04-09T21:00:00.129Z,307.5
2023-04-09T21:05:08.441Z,312.5
2023-04-09T21:10:00.160Z,305
2023-04-09T21:15:00.188Z,292.5
2023-04-09T21:20:00.129Z,310
2023-04-09T21:25:00.147Z,297.5
2023-04-09T21:30:00.166Z,295
2023-04-09T21:35:00.125Z,312.5
2023-04-09T21:40:00.138Z,305
2023-04-09T21:45:00.155Z,297.5
2023-04-09T21:50:00.146Z,300
2023-04-09T21:55:00.127Z,295
2023-04-09T22:00:00.127Z,300
2023-04-09T22:05:00.215Z,297.5
2023-04-09T22:10:00.156Z,302.5
2023-04-09T22:15:00.120Z,305
2023-04-09T22:20:00.130Z,305
2023-04-09T22:25:00.109Z,300
2023-04-09T22:30:00.439Z,292.5
2023-04-09T22:35:00.149Z,295
2023-04-09T22:40:00.146Z,305
2023-04-09T22:45:00.119Z,307.5
2023-04-09T22:50:00.140Z,305
2023-04-09T22:55:00.136Z,305
2023-04-09T23:00:00.163Z,280
2023-04-09T23:05:00.155Z,297.5
2023-04-09T23:10:00.153Z,300
2023-04-09T23:15:00.114Z,310
2023-04-09T23:20:00.140Z,302.5
2023-04-09T23:25:00.119Z,305
2023-04-09T23:30:00.114Z,295
2023-04-09T23:35:00.223Z,307.5
2023-04-09T23:40:00.140Z,305
2023-04-09T23:45:00.145Z,292.5
2023-04-09T23:50:00.150Z,302.5
2023-04-09T23:55:00.128Z,305
